Time,TemperatureF,DewpointF,PressureIn,WindDirection,WindDirectionDegrees,WindSpeedMPH,WindSpeedGustMPH,Humidity,HourlyPrecipIn,Conditions,Clouds,dailyrainin,SoftwareType,DateUTC
2013-06-25 08:49:00,74.8,69.4,29.00,North,-999,-999.0,-999.0,83,0.00,,,0.00,WSDL version 420,2013-06-25 12:49:00,
2013-06-25 08:51:00,74.9,69.3,29.00,North,-999,-999.0,-999.0,82,0.00,,,0.00,WSDL version 420,2013-06-25 12:51:00,
2013-06-25 08:53:00,75.1,69.2,29.00,North,-999,-999.0,-999.0,81,0.00,,,0.00,WSDL version 420,2013-06-25 12:53:00,
2013-06-25 08:55:00,75.1,69.0,29.00,North,360,0.0,0.0,80,0.00,,,0.00,WSDL version 420,2013-06-25 12:55:00,
2013-06-25 08:57:00,75.2,68.7,29.00,NE,45,0.0,0.0,79,0.00,,,0.00,WSDL version 420,2013-06-25 12:57:00,
2013-06-25 09:01:00,75.5,68.4,29.00,North,0,0.0,0.0,78,0.00,,,0.00,WSDL version 420,2013-06-25 13:01:00,
2013-06-25 09:03:00,75.6,68.4,29.00,South,180,0.0,0.0,78,0.00,,,0.00,WSDL version 420,2013-06-25 13:03:00,
2013-06-25 09:05:00,75.7,68.4,29.00,East,90,0.0,0.0,78,0.00,,,0.00,WSDL version 420,2013-06-25 13:05:00,
2013-06-25 09:09:00,76.0,68.4,29.00,North,-999,-999.0,-999.0,77,0.00,,,0.00,WSDL version 420,2013-06-25 13:09:00,
2013-06-25 09:15:00,76.3,68.5,29.00,North,-999,-999.0,-999.0,77,0.00,,,0.00,WSDL version 420,2013-06-25 13:15:00,
2013-06-25 09:17:00,76.4,68.5,29.00,ENE,68,0.0,0.0,76,0.00,,,0.00,WSDL version 420,2013-06-25 13:17:00,
2013-06-25 09:19:00,76.6,68.5,29.00,North,-999,-999.0,-999.0,76,0.00,,,0.00,WSDL version 420,2013-06-25 13:19:00,
2013-06-25 09:21:00,76.8,68.6,29.00,North,-999,-999.0,-999.0,75,0.00,,,0.00,WSDL version 420,2013-06-25 13:21:00,
2013-06-25 09:23:00,77.0,68.6,29.00,South,180,0.0,0.0,75,0.00,,,0.00,WSDL version 420,2013-06-25 13:23:00,
2013-06-25 09:29:00,77.4,68.6,29.00,North,-999,-999.0,-999.0,74,0.00,,,0.00,WSDL version 420,2013-06-25 13:29:00,
2013-06-25 09:33:00,77.8,68.7,29.00,South,180,0.0,0.0,73,0.00,,,0.00,WSDL version 420,2013-06-25 13:33:00,
2013-06-25 09:35:00,77.9,68.7,29.00,North,-999,-999.0,-999.0,73,0.00,,,0.00,WSDL version 420,2013-06-25 13:35:00,
2013-06-25 09:37:00,78.1,68.7,29.00,North,-999,-999.0,-999.0,73,0.00,,,0.00,WSDL version 420,2013-06-25 13:37:00,
2013-06-25 09:41:00,78.4,68.8,29.00,North,-999,-999.0,-999.0,72,0.00,,,0.00,WSDL version 420,2013-06-25 13:41:00,
2013-06-25 09:43:00,78.5,68.7,29.00,North,-999,-999.0,-999.0,71,0.00,,,0.00,WSDL version 420,2013-06-25 13:43:00,
2013-06-25 09:47:00,78.7,68.2,29.00,NW,315,0.0,1.3,69,0.00,,,0.00,WSDL version 420,2013-06-25 13:47:00,
2013-06-25 09:49:00,78.8,68.0,29.00,North,0,0.0,0.0,69,0.00,,,0.00,WSDL version 420,2013-06-25 13:49:00,
2013-06-25 09:53:00,78.9,67.7,29.00,North,-999,-999.0,-999.0,68,0.00,,,0.00,WSDL version 420,2013-06-25 13:53:00,
2013-06-25 09:59:00,79.3,67.8,29.00,North,-999,-999.0,-999.0,68,0.00,,,0.00,WSDL version 420,2013-06-25 13:59:00,
2013-06-25 10:01:00,79.4,68.0,29.00,East,90,0.0,0.0,68,0.00,,,0.00,WSDL version 420,2013-06-25 14:01:00,
2013-06-25 10:03:00,79.6,67.9,29.00,North,-999,-999.0,-999.0,67,0.00,,,0.00,WSDL version 420,2013-06-25 14:03:00,
2013-06-25 10:05:00,79.6,67.8,29.00,North,-999,-999.0,-999.0,67,0.00,,,0.00,WSDL version 420,2013-06-25 14:05:00,
2013-06-25 10:09:00,79.7,67.8,29.00,North,-999,-999.0,-999.0,67,0.00,,,0.00,WSDL version 420,2013-06-25 14:09:00,
2013-06-25 10:15:00,80.1,67.8,29.00,North,-999,-999.0,-999.0,66,0.00,,,0.00,WSDL version 420,2013-06-25 14:15:00,
2013-06-25 10:17:00,80.2,67.8,29.00,North,-999,-999.0,-999.0,66,0.00,,,0.00,WSDL version 420,2013-06-25 14:17:00,
2013-06-25 10:19:00,80.3,67.9,29.00,ESE,113,0.0,2.5,66,0.00,,,0.00,WSDL version 420,2013-06-25 14:19:00,
2013-06-25 10:23:00,80.6,67.5,29.03,SE,135,0.0,2.5,64,0.00,,,0.00,WSDL version 420,2013-06-25 14:23:00,
2013-06-25 10:25:00,80.7,67.4,29.03,North,-999,-999.0,-999.0,64,0.00,,,0.00,WSDL version 420,2013-06-25 14:25:00,
2013-06-25 10:27:00,80.7,67.4,29.03,NE,45,0.0,2.5,64,0.00,,,0.00,WSDL version 420,2013-06-25 14:27:00,
2013-06-25 10:29:00,80.9,67.4,29.03,North,-999,-999.0,-999.0,63,0.00,,,0.00,WSDL version 420,2013-06-25 14:29:00,
2013-06-25 10:31:00,81.0,67.3,29.03,SE,135,0.0,2.0,63,0.00,,,0.00,WSDL version 420,2013-06-25 14:31:00,
2013-06-25 10:33:00,81.1,67.4,29.03,North,-999,-999.0,-999.0,63,0.00,,,0.00,WSDL version 420,2013-06-25 14:33:00,
2013-06-25 10:37:00,81.4,67.6,29.00,North,0,0.0,2.0,63,0.00,,,0.00,WSDL version 420,2013-06-25 14:37:00,
2013-06-25 10:43:00,81.8,67.7,29.00,North,-999,-999.0,-999.0,62,0.00,,,0.00,WSDL version 420,2013-06-25 14:43:00,
2013-06-25 10:45:00,82.0,67.3,29.00,South,169,0.6,0.0,61,0.00,,,0.00,WSDL version 420,2013-06-25 14:45:00,
2013-06-25 10:47:00,82.1,67.3,29.00,North,0,0.0,0.0,61,0.00,,,0.00,WSDL version 420,2013-06-25 14:47:00,
2013-06-25 10:49:00,82.2,67.2,29.00,North,-999,-999.0,-999.0,60,0.00,,,0.00,WSDL version 420,2013-06-25 14:49:00,
2013-06-25 10:51:00,82.4,67.2,29.03,North,-999,-999.0,-999.0,60,0.00,,,0.00,WSDL version 420,2013-06-25 14:51:00,
2013-06-25 10:53:00,82.6,67.0,29.03,North,-999,-999.0,-999.0,59,0.00,,,0.00,WSDL version 420,2013-06-25 14:53:00,
2013-06-25 10:55:00,82.7,66.9,29.03,North,-999,-999.0,-999.0,58,0.00,,,0.00,WSDL version 420,2013-06-25 14:55:00,
2013-06-25 10:59:00,82.9,66.5,29.03,SE,135,0.0,0.0,57,0.00,,,0.00,WSDL version 420,2013-06-25 14:59:00,
2013-06-25 11:01:00,82.9,66.1,29.03,East,90,0.0,0.0,56,0.00,,,0.00,WSDL version 420,2013-06-25 15:01:00,
2013-06-25 11:03:00,83.0,65.8,29.03,North,0,0.0,0.0,56,0.00,,,0.00,WSDL version 420,2013-06-25 15:03:00,
2013-06-25 11:05:00,83.0,65.6,29.03,North,-999,-999.0,-999.0,55,0.00,,,0.00,WSDL version 420,2013-06-25 15:05:00,
2013-06-25 11:07:00,83.0,65.4,29.03,North,-999,-999.0,-999.0,55,0.00,,,0.00,WSDL version 420,2013-06-25 15:07:00,
2013-06-25 11:09:00,82.9,65.2,29.03,North,-999,-999.0,-999.0,56,0.00,,,0.00,WSDL version 420,2013-06-25 15:09:00,
2013-06-25 11:13:00,82.8,65.2,29.03,North,-999,-999.0,-999.0,55,0.00,,,0.00,WSDL version 420,2013-06-25 15:13:00,
2013-06-25 11:15:00,82.8,65.1,29.03,North,360,0.0,0.0,55,0.00,,,0.00,WSDL version 420,2013-06-25 15:15:00,
2013-06-25 11:17:00,82.6,65.1,29.03,North,-999,-999.0,-999.0,56,0.00,,,0.00,WSDL version 420,2013-06-25 15:17:00,
2013-06-25 11:21:00,82.6,65.0,29.03,SSE,158,0.0,0.0,55,0.00,,,0.00,WSDL version 420,2013-06-25 15:21:00,
2013-06-25 11:23:00,82.6,64.9,29.03,SSE,158,0.0,0.0,56,0.00,,,0.00,WSDL version 420,2013-06-25 15:23:00,
2013-06-25 11:25:00,82.6,64.8,29.03,SSE,158,0.0,0.0,54,0.00,,,0.00,WSDL version 420,2013-06-25 15:25:00,
2013-06-25 11:27:00,82.6,64.9,29.03,SSE,158,0.0,0.0,56,0.00,,,0.00,WSDL version 420,2013-06-25 15:27:00,
2013-06-25 11:31:00,82.5,65.0,29.03,SE,135,1.1,0.0,55,0.00,,,0.00,WSDL version 420,2013-06-25 15:31:00,
2013-06-25 11:33:00,82.3,64.9,29.03,SE,135,0.0,0.0,56,0.00,,,0.00,WSDL version 420,2013-06-25 15:33:00,
2013-06-25 11:37:00,82.1,64.7,29.03,East,90,0.0,1.3,55,0.00,,,0.00,WSDL version 420,2013-06-25 15:37:00,
2013-06-25 11:39:00,82.5,64.9,29.03,North,0,0.0,1.3,56,0.00,,,0.00,WSDL version 420,2013-06-25 15:39:00,
2013-06-25 11:43:00,83.2,65.5,29.03,North,-999,-999.0,-999.0,55,0.00,,,0.00,WSDL version 420,2013-06-25 15:43:00,
2013-06-25 11:45:00,83.3,65.5,29.03,North,-999,-999.0,-999.0,55,0.00,,,0.00,WSDL version 420,2013-06-25 15:45:00,
2013-06-25 11:47:00,83.0,65.3,29.03,North,-999,-999.0,-999.0,55,0.00,,,0.00,WSDL version 420,2013-06-25 15:47:00,
2013-06-25 11:53:00,82.1,63.9,29.03,North,-999,-999.0,-999.0,54,0.00,,,0.00,WSDL version 420,2013-06-25 15:53:00,
2013-06-25 11:55:00,81.9,63.5,29.03,SE,135,0.0,0.0,53,0.00,,,0.00,WSDL version 420,2013-06-25 15:55:00,
2013-06-25 11:59:00,81.5,63.3,29.03,North,-999,-999.0,-999.0,55,0.00,,,0.00,WSDL version 420,2013-06-25 15:59:00,
2013-06-25 12:01:00,81.3,63.5,29.03,North,-999,-999.0,-999.0,55,0.00,,,0.00,WSDL version 420,2013-06-25 16:01:00,
2013-06-25 12:03:00,81.1,63.5,29.03,North,-999,-999.0,-999.0,55,0.00,,,0.00,WSDL version 420,2013-06-25 16:03:00,
2013-06-25 12:05:00,80.9,63.4,29.03,North,-999,-999.0,-999.0,56,0.00,,,0.00,WSDL version 420,2013-06-25 16:05:00,
2013-06-25 12:09:00,80.4,63.8,29.03,North,-999,-999.0,-999.0,58,0.00,,,0.00,WSDL version 420,2013-06-25 16:09:00,
2013-06-25 12:11:00,80.2,64.2,29.03,North,-999,-999.0,-999.0,60,0.00,,,0.00,WSDL version 420,2013-06-25 16:11:00,
2013-06-25 12:13:00,80.0,64.6,29.03,North,-999,-999.0,-999.0,61,0.04,,,0.04,WSDL version 420,2013-06-25 16:13:00,
2013-06-25 12:15:00,79.6,64.8,29.03,North,-999,-999.0,-999.0,61,0.04,,,0.04,WSDL version 420,2013-06-25 16:15:00,
2013-06-25 12:17:00,79.1,64.6,29.03,North,-999,-999.0,-999.0,62,0.08,,,0.08,WSDL version 420,2013-06-25 16:17:00,
2013-06-25 12:19:00,78.7,64.5,29.03,North,-999,-999.0,-999.0,63,0.08,,,0.08,WSDL version 420,2013-06-25 16:19:00,
2013-06-25 12:23:00,78.0,64.7,29.03,North,360,0.0,0.0,64,0.08,,,0.08,WSDL version 420,2013-06-25 16:23:00,
2013-06-25 12:25:00,77.8,64.9,29.03,North,-999,-999.0,-999.0,66,0.08,,,0.08,WSDL version 420,2013-06-25 16:25:00,
2013-06-25 12:27:00,77.7,65.1,29.03,North,-999,-999.0,-999.0,66,0.08,,,0.08,WSDL version 420,2013-06-25 16:27:00,
2013-06-25 12:47:00,-999.0,-99.9,-100.00,North,-999,-999.0,-999.0,-999,0.08,,,0.08,WSDL version 420,2013-06-25 16:47:00,
2013-06-25 12:54:00,80.0,68.4,29.00,North,-999,-999.0,-999.0,68,0.08,,,0.08,WSDL version 420,2013-06-25 16:54:00,
2013-06-25 12:56:00,80.3,68.7,29.00,North,-999,-999.0,-999.0,68,0.08,,,0.08,WSDL version 420,2013-06-25 16:56:00,
2013-06-25 13:00:00,80.6,68.9,29.00,North,360,0.0,0.0,67,0.08,,,0.08,WSDL version 420,2013-06-25 17:00:00,
2013-06-25 13:02:00,80.4,68.5,29.00,North,0,0.0,0.0,67,0.08,,,0.08,WSDL version 420,2013-06-25 17:02:00,
2013-06-25 13:04:00,80.1,68.1,29.00,North,-999,-999.0,-999.0,67,0.08,,,0.08,WSDL version 420,2013-06-25 17:04:00,
2013-06-25 13:08:00,79.7,67.7,29.00,North,-999,-999.0,-999.0,67,0.08,,,0.08,WSDL version 420,2013-06-25 17:08:00,
2013-06-25 13:10:00,79.7,67.5,29.00,North,-999,-999.0,-999.0,66,0.08,,,0.08,WSDL version 420,2013-06-25 17:10:00,
2013-06-25 13:12:00,79.7,67.4,29.00,North,-999,-999.0,-999.0,66,0.04,,,0.08,WSDL version 420,2013-06-25 17:12:00,
2013-06-25 13:14:00,79.6,67.2,29.00,North,-999,-999.0,-999.0,66,0.04,,,0.08,WSDL version 420,2013-06-25 17:14:00,
2013-06-25 13:18:00,79.1,66.5,29.00,North,360,0.0,0.0,65,0.00,,,0.08,WSDL version 420,2013-06-25 17:18:00,
2013-06-25 13:20:00,78.9,66.3,29.00,North,360,0.0,0.0,65,0.00,,,0.08,WSDL version 420,2013-06-25 17:20:00,
2013-06-25 13:22:00,78.7,65.9,29.00,North,-999,-999.0,-999.0,65,0.00,,,0.08,WSDL version 420,2013-06-25 17:22:00,
2013-06-25 13:24:00,78.4,65.6,29.00,North,-999,-999.0,-999.0,65,0.00,,,0.08,WSDL version 420,2013-06-25 17:24:00,
2013-06-25 13:28:00,78.0,65.6,29.00,North,-999,-999.0,-999.0,66,0.00,,,0.08,WSDL version 420,2013-06-25 17:28:00,
2013-06-25 13:30:00,77.9,65.6,29.00,North,360,0.0,0.0,66,0.00,,,0.08,WSDL version 420,2013-06-25 17:30:00,
2013-06-25 13:32:00,77.7,65.4,29.00,North,-999,-999.0,-999.0,66,0.00,,,0.08,WSDL version 420,2013-06-25 17:32:00,
2013-06-25 13:34:00,77.5,65.2,29.00,North,-999,-999.0,-999.0,66,0.00,,,0.08,WSDL version 420,2013-06-25 17:34:00,
2013-06-25 13:36:00,77.3,65.1,29.00,North,-999,-999.0,-999.0,66,0.00,,,0.08,WSDL version 420,2013-06-25 17:36:00,
2013-06-25 13:38:00,77.2,65.1,29.00,North,-999,-999.0,-999.0,67,0.00,,,0.08,WSDL version 420,2013-06-25 17:38:00,
2013-06-25 13:44:00,77.0,65.7,29.00,North,-999,-999.0,-999.0,69,0.05,,,0.13,WSDL version 420,2013-06-25 17:44:00,
2013-06-25 13:46:00,76.9,65.8,29.00,North,-999,-999.0,-999.0,69,0.13,,,0.21,WSDL version 420,2013-06-25 17:46:00,
2013-06-25 13:50:00,76.6,65.8,29.00,North,-999,-999.0,-999.0,69,0.17,,,0.25,WSDL version 420,2013-06-25 17:50:00,
2013-06-25 13:52:00,76.4,65.7,29.00,North,-999,-999.0,-999.0,69,0.21,,,0.29,WSDL version 420,2013-06-25 17:52:00,
2013-06-25 13:54:00,76.2,65.5,29.00,North,-999,-999.0,-999.0,70,0.21,,,0.29,WSDL version 420,2013-06-25 17:54:00,
2013-06-25 13:56:00,76.1,65.5,29.00,North,-999,-999.0,-999.0,70,0.25,,,0.33,WSDL version 420,2013-06-25 17:56:00,
2013-06-25 13:58:00,76.1,65.6,29.00,North,-999,-999.0,-999.0,70,0.25,,,0.33,WSDL version 420,2013-06-25 17:58:00,
2013-06-25 14:02:00,75.9,65.4,29.00,North,-999,-999.0,-999.0,70,0.25,,,0.33,WSDL version 420,2013-06-25 18:02:00,
2013-06-25 14:06:00,75.9,65.7,29.00,North,-999,-999.0,-999.0,71,0.25,,,0.33,WSDL version 420,2013-06-25 18:06:00,
2013-06-25 14:12:00,76.1,66.0,29.00,North,-999,-999.0,-999.0,71,0.25,,,0.33,WSDL version 420,2013-06-25 18:12:00,
2013-06-25 14:14:00,76.3,66.2,29.00,NNE,23,0.0,0.0,71,0.25,,,0.33,WSDL version 420,2013-06-25 18:14:00,
2013-06-25 14:18:00,76.9,66.8,29.00,NNE,23,0.0,0.0,71,0.25,,,0.33,WSDL version 420,2013-06-25 18:18:00,
2013-06-25 14:20:00,77.2,67.1,29.00,North,-999,-999.0,-999.0,71,0.25,,,0.33,WSDL version 420,2013-06-25 18:20:00,
2013-06-25 14:22:00,77.5,67.3,28.97,NNE,23,0.0,0.0,71,0.25,,,0.33,WSDL version 420,2013-06-25 18:22:00,
2013-06-25 14:26:00,78.1,68.0,28.97,NNE,23,0.0,0.0,71,0.25,,,0.33,WSDL version 420,2013-06-25 18:26:00,
2013-06-25 14:30:00,78.6,68.6,28.97,East,90,0.0,0.0,71,0.25,,,0.33,WSDL version 420,2013-06-25 18:30:00,
2013-06-25 14:32:00,78.9,68.8,28.97,North,-999,-999.0,-999.0,71,0.25,,,0.33,WSDL version 420,2013-06-25 18:32:00,
2013-06-25 14:36:00,79.5,69.3,28.97,North,-999,-999.0,-999.0,71,0.25,,,0.33,WSDL version 420,2013-06-25 18:36:00,
2013-06-25 14:38:00,79.8,69.5,28.97,North,-999,-999.0,-999.0,71,0.25,,,0.33,WSDL version 420,2013-06-25 18:38:00,
2013-06-25 14:40:00,80.0,69.7,28.97,ESE,113,0.0,0.0,71,0.20,,,0.33,WSDL version 420,2013-06-25 18:40:00,
2013-06-25 14:44:00,80.3,70.0,28.97,North,-999,-999.0,-999.0,70,0.20,,,0.33,WSDL version 420,2013-06-25 18:44:00,
2013-06-25 14:46:00,80.5,70.0,28.97,North,-999,-999.0,-999.0,70,0.16,,,0.33,WSDL version 420,2013-06-25 18:46:00,
2013-06-25 14:48:00,80.7,70.0,28.97,NE,45,0.0,0.0,70,0.08,,,0.33,WSDL version 420,2013-06-25 18:48:00,
2013-06-25 14:52:00,81.0,70.1,28.97,North,-999,-999.0,-999.0,69,0.04,,,0.33,WSDL version 420,2013-06-25 18:52:00,
2013-06-25 14:54:00,81.1,70.0,28.97,North,-999,-999.0,-999.0,69,0.04,,,0.33,WSDL version 420,2013-06-25 18:54:00,
2013-06-25 14:56:00,81.1,70.0,28.97,North,-999,-999.0,-999.0,69,0.00,,,0.33,WSDL version 420,2013-06-25 18:56:00,
2013-06-25 14:58:00,81.3,70.1,28.97,North,-999,-999.0,-999.0,69,0.00,,,0.33,WSDL version 420,2013-06-25 18:58:00,
2013-06-25 15:00:00,81.4,70.1,28.97,North,-999,-999.0,-999.0,68,0.00,,,0.33,WSDL version 420,2013-06-25 19:00:00,
2013-06-25 15:02:00,81.6,70.2,28.97,North,-999,-999.0,-999.0,68,0.00,,,0.33,WSDL version 420,2013-06-25 19:02:00,
2013-06-25 15:06:00,81.9,70.2,28.97,North,-999,-999.0,-999.0,67,0.00,,,0.33,WSDL version 420,2013-06-25 19:06:00,
2013-06-25 15:08:00,82.0,70.2,28.97,North,-999,-999.0,-999.0,68,0.00,,,0.33,WSDL version 420,2013-06-25 19:08:00,
2013-06-25 15:10:00,82.0,70.1,28.97,NE,45,0.0,0.0,67,0.00,,,0.33,WSDL version 420,2013-06-25 19:10:00,
2013-06-25 15:14:00,82.0,69.8,28.97,North,-999,-999.0,-999.0,66,0.00,,,0.33,WSDL version 420,2013-06-25 19:14:00,
2013-06-25 15:16:00,81.8,69.6,28.97,North,-999,-999.0,-999.0,66,0.00,,,0.33,WSDL version 420,2013-06-25 19:16:00,
2013-06-25 15:22:00,81.6,69.2,28.97,North,-999,-999.0,-999.0,66,0.00,,,0.33,WSDL version 420,2013-06-25 19:22:00,
2013-06-25 15:24:00,81.7,69.2,28.97,North,-999,-999.0,-999.0,66,0.00,,,0.33,WSDL version 420,2013-06-25 19:24:00,
2013-06-25 15:26:00,81.8,69.3,28.97,North,-999,-999.0,-999.0,66,0.00,,,0.33,WSDL version 420,2013-06-25 19:26:00,
2013-06-25 15:28:00,81.9,69.4,28.97,North,360,0.0,0.0,66,0.00,,,0.33,WSDL version 420,2013-06-25 19:28:00,
2013-06-25 15:30:00,81.9,69.2,28.97,North,0,0.0,0.0,65,0.00,,,0.33,WSDL version 420,2013-06-25 19:30:00,
2013-06-25 15:32:00,81.9,68.9,28.97,North,-999,-999.0,-999.0,64,0.00,,,0.33,WSDL version 420,2013-06-25 19:32:00,
2013-06-25 15:36:00,81.8,68.0,28.97,North,-999,-999.0,-999.0,63,0.00,,,0.33,WSDL version 420,2013-06-25 19:36:00,
2013-06-25 15:38:00,81.7,67.9,28.97,North,360,0.0,0.0,63,0.00,,,0.33,WSDL version 420,2013-06-25 19:38:00,
2013-06-25 15:44:00,81.7,68.3,28.97,North,360,0.0,0.0,64,0.00,,,0.33,WSDL version 420,2013-06-25 19:44:00,
2013-06-25 15:46:00,81.8,68.4,28.97,North,-999,-999.0,-999.0,64,0.00,,,0.33,WSDL version 420,2013-06-25 19:46:00,
2013-06-25 15:48:00,81.9,68.5,28.97,North,-999,-999.0,-999.0,64,0.00,,,0.33,WSDL version 420,2013-06-25 19:48:00,
2013-06-25 15:52:00,82.1,68.3,28.97,North,-999,-999.0,-999.0,63,0.00,,,0.33,WSDL version 420,2013-06-25 19:52:00,
2013-06-25 15:54:00,82.2,68.2,28.97,North,-999,-999.0,-999.0,63,0.00,,,0.33,WSDL version 420,2013-06-25 19:54:00,
2013-06-25 15:56:00,82.2,68.3,28.97,North,-999,-999.0,-999.0,62,0.00,,,0.33,WSDL version 420,2013-06-25 19:56:00,
2013-06-25 15:58:00,82.2,68.0,28.97,NE,45,0.0,0.0,62,0.00,,,0.33,WSDL version 420,2013-06-25 19:58:00,
2013-06-25 16:00:00,82.1,67.7,28.97,North,-999,-999.0,-999.0,62,0.00,,,0.33,WSDL version 420,2013-06-25 20:00:00,
2013-06-25 16:06:00,82.0,67.2,28.97,North,-999,-999.0,-999.0,60,0.00,,,0.33,WSDL version 420,2013-06-25 20:06:00,
2013-06-25 16:10:00,81.9,66.3,28.97,NE,45,0.0,0.0,58,0.00,,,0.33,WSDL version 420,2013-06-25 20:10:00,
2013-06-25 16:12:00,81.9,65.9,28.97,North,-999,-999.0,-999.0,58,0.00,,,0.33,WSDL version 420,2013-06-25 20:12:00,
2013-06-25 16:14:00,81.9,65.3,28.97,North,-999,-999.0,-999.0,56,0.00,,,0.33,WSDL version 420,2013-06-25 20:14:00,
2013-06-25 16:16:00,81.9,65.0,28.97,North,-999,-999.0,-999.0,56,0.00,,,0.33,WSDL version 420,2013-06-25 20:16:00,
2013-06-25 16:18:00,81.9,64.6,28.97,North,-999,-999.0,-999.0,56,0.00,,,0.33,WSDL version 420,2013-06-25 20:18:00,
2013-06-25 16:20:00,81.8,64.3,28.97,North,-999,-999.0,-999.0,55,0.00,,,0.33,WSDL version 420,2013-06-25 20:20:00,
2013-06-25 16:22:00,81.7,64.2,28.94,North,-999,-999.0,-999.0,56,0.00,,,0.33,WSDL version 420,2013-06-25 20:22:00,
2013-06-25 16:24:00,81.7,64.3,28.94,SSW,203,0.0,0.0,56,0.00,,,0.33,WSDL version 420,2013-06-25 20:24:00,
2013-06-25 16:26:00,81.6,64.4,28.94,SSW,203,0.0,0.0,56,0.00,,,0.33,WSDL version 420,2013-06-25 20:26:00,
2013-06-25 16:28:00,81.6,64.1,28.94,North,-999,-999.0,-999.0,55,0.00,,,0.33,WSDL version 420,2013-06-25 20:28:00,
2013-06-25 16:30:00,81.5,63.9,28.94,SSW,203,0.0,0.0,55,0.00,,,0.33,WSDL version 420,2013-06-25 20:30:00,
2013-06-25 16:36:00,81.3,63.6,28.94,North,-999,-999.0,-999.0,55,0.00,,,0.33,WSDL version 420,2013-06-25 20:36:00,
2013-06-25 16:38:00,81.3,63.6,28.94,SSE,158,0.0,0.0,55,0.00,,,0.33,WSDL version 420,2013-06-25 20:38:00,
2013-06-25 16:44:00,81.4,65.1,28.94,SSE,158,0.0,0.0,58,0.00,,,0.33,WSDL version 420,2013-06-25 20:44:00,
2013-06-25 16:46:00,81.4,65.1,28.94,SSE,158,0.0,0.0,56,0.00,,,0.33,WSDL version 420,2013-06-25 20:46:00,
2013-06-25 16:50:00,81.2,63.3,28.94,East,90,0.0,0.0,54,0.00,,,0.33,WSDL version 420,2013-06-25 20:50:00,
2013-06-25 16:52:00,81.2,62.7,28.94,North,-999,-999.0,-999.0,53,0.00,,,0.33,WSDL version 420,2013-06-25 20:52:00,
2013-06-25 16:54:00,81.1,62.5,28.94,North,-999,-999.0,-999.0,53,0.00,,,0.33,WSDL version 420,2013-06-25 20:54:00,
2013-06-25 16:58:00,81.1,63.0,28.94,North,-999,-999.0,-999.0,55,0.00,,,0.33,WSDL version 420,2013-06-25 20:58:00,
2013-06-25 17:00:00,81.1,63.2,28.94,North,-999,-999.0,-999.0,55,0.00,,,0.33,WSDL version 420,2013-06-25 21:00:00,
2013-06-25 17:02:00,81.0,63.2,28.94,North,-999,-999.0,-999.0,54,0.00,,,0.33,WSDL version 420,2013-06-25 21:02:00,
2013-06-25 17:04:00,80.9,62.9,28.94,South,180,0.0,0.0,54,0.00,,,0.33,WSDL version 420,2013-06-25 21:04:00,
2013-06-25 17:08:00,80.8,63.2,28.94,North,-999,-999.0,-999.0,56,0.00,,,0.33,WSDL version 420,2013-06-25 21:08:00,
2013-06-25 17:12:00,80.6,63.6,28.94,North,-999,-999.0,-999.0,57,0.00,,,0.33,WSDL version 420,2013-06-25 21:12:00,
2013-06-25 17:14:00,80.5,63.7,28.94,South,180,0.0,0.0,57,0.00,,,0.33,WSDL version 420,2013-06-25 21:14:00,
2013-06-25 17:18:00,80.3,64.0,28.94,North,-999,-999.0,-999.0,58,0.00,,,0.33,WSDL version 420,2013-06-25 21:18:00,
2013-06-25 17:20:00,80.2,64.1,28.94,North,-999,-999.0,-999.0,58,0.00,,,0.33,WSDL version 420,2013-06-25 21:20:00,
2013-06-25 17:22:00,80.1,64.2,28.94,North,-999,-999.0,-999.0,59,0.00,,,0.33,WSDL version 420,2013-06-25 21:22:00,
2013-06-25 17:24:00,80.0,64.5,28.94,North,-999,-999.0,-999.0,60,0.00,,,0.33,WSDL version 420,2013-06-25 21:24:00,
2013-06-25 17:28:00,79.8,65.1,28.94,North,-999,-999.0,-999.0,62,0.00,,,0.33,WSDL version 420,2013-06-25 21:28:00,
2013-06-25 17:30:00,79.7,65.4,28.94,North,-999,-999.0,-999.0,62,0.00,,,0.33,WSDL version 420,2013-06-25 21:30:00,
2013-06-25 17:34:00,79.7,65.9,28.94,North,-999,-999.0,-999.0,63,0.00,,,0.33,WSDL version 420,2013-06-25 21:34:00,
2013-06-25 17:36:00,79.6,66.1,28.94,North,-999,-999.0,-999.0,64,0.00,,,0.33,WSDL version 420,2013-06-25 21:36:00,
2013-06-25 17:42:00,79.4,66.0,28.94,North,-999,-999.0,-999.0,63,0.00,,,0.33,WSDL version 420,2013-06-25 21:42:00,
2013-06-25 17:44:00,79.4,65.8,28.94,North,-999,-999.0,-999.0,63,0.00,,,0.33,WSDL version 420,2013-06-25 21:44:00,
2013-06-25 17:46:00,79.3,65.5,28.94,North,-999,-999.0,-999.0,62,0.00,,,0.33,WSDL version 420,2013-06-25 21:46:00,
2013-06-25 17:50:00,79.1,64.8,28.94,North,-999,-999.0,-999.0,61,0.00,,,0.33,WSDL version 420,2013-06-25 21:50:00,
2013-06-25 17:52:00,79.0,64.4,28.94,SW,225,0.0,0.0,60,0.00,,,0.33,WSDL version 420,2013-06-25 21:52:00,
2013-06-25 17:56:00,78.8,63.8,28.94,SW,225,0.0,0.0,60,0.00,,,0.33,WSDL version 420,2013-06-25 21:56:00,
2013-06-25 17:58:00,78.7,63.6,28.94,North,-999,-999.0,-999.0,60,0.00,,,0.33,WSDL version 420,2013-06-25 21:58:00,
2013-06-25 18:00:00,78.7,63.5,28.94,North,-999,-999.0,-999.0,59,0.00,,,0.33,WSDL version 420,2013-06-25 22:00:00,
2013-06-25 18:04:00,78.5,63.0,28.94,WNW,293,0.0,0.0,59,0.00,,,0.33,WSDL version 420,2013-06-25 22:04:00,
2013-06-25 18:06:00,78.4,62.9,28.94,WNW,293,0.0,0.0,59,0.00,,,0.33,WSDL version 420,2013-06-25 22:06:00,
2013-06-25 18:10:00,78.3,62.9,28.94,North,-999,-999.0,-999.0,60,0.00,,,0.33,WSDL version 420,2013-06-25 22:10:00,
2013-06-25 18:12:00,78.3,63.1,28.94,North,-999,-999.0,-999.0,60,0.00,,,0.33,WSDL version 420,2013-06-25 22:12:00,
2013-06-25 18:18:00,78.1,63.2,28.94,North,-999,-999.0,-999.0,60,0.00,,,0.33,WSDL version 420,2013-06-25 22:18:00,
2013-06-25 18:20:00,78.1,63.1,28.94,North,-999,-999.0,-999.0,60,0.00,,,0.33,WSDL version 420,2013-06-25 22:20:00,
2013-06-25 18:26:00,77.9,63.4,28.91,SW,225,0.0,0.0,61,0.00,,,0.33,WSDL version 420,2013-06-25 22:26:00,
2013-06-25 18:28:00,77.9,63.4,28.91,North,-999,-999.0,-999.0,61,0.00,,,0.33,WSDL version 420,2013-06-25 22:28:00,
2013-06-25 18:30:00,77.9,63.4,28.91,North,-999,-999.0,-999.0,61,0.00,,,0.33,WSDL version 420,2013-06-25 22:30:00,
2013-06-25 18:34:00,77.9,63.4,28.91,North,-999,-999.0,-999.0,61,0.00,,,0.33,WSDL version 420,2013-06-25 22:34:00,
2013-06-25 18:36:00,77.9,63.4,28.91,North,-999,-999.0,-999.0,61,0.00,,,0.33,WSDL version 420,2013-06-25 22:36:00,
2013-06-25 18:38:00,77.9,63.4,28.91,ESE,113,0.0,0.0,61,0.00,,,0.33,WSDL version 420,2013-06-25 22:38:00,
2013-06-25 18:40:00,77.9,63.4,28.91,East,90,0.0,0.0,61,0.00,,,0.33,WSDL version 420,2013-06-25 22:40:00,
2013-06-25 18:44:00,77.9,63.4,28.91,North,-999,-999.0,-999.0,61,0.00,,,0.33,WSDL version 420,2013-06-25 22:44:00,
2013-06-25 18:48:00,78.0,63.5,28.91,North,-999,-999.0,-999.0,61,0.00,,,0.33,WSDL version 420,2013-06-25 22:48:00,
2013-06-25 18:52:00,78.1,63.6,28.91,North,-999,-999.0,-999.0,61,0.00,,,0.33,WSDL version 420,2013-06-25 22:52:00,
2013-06-25 18:54:00,78.1,63.6,28.91,North,-999,-999.0,-999.0,61,0.00,,,0.33,WSDL version 420,2013-06-25 22:54:00,
2013-06-25 19:00:00,78.1,63.6,28.91,North,-999,-999.0,-999.0,61,0.00,,,0.33,WSDL version 420,2013-06-25 23:00:00,
2013-06-25 19:02:00,78.1,63.6,28.91,North,-999,-999.0,-999.0,61,0.00,,,0.33,WSDL version 420,2013-06-25 23:02:00,
2013-06-25 19:04:00,78.0,63.5,28.91,North,-999,-999.0,-999.0,61,0.00,,,0.33,WSDL version 420,2013-06-25 23:04:00,
2013-06-25 19:06:00,77.9,63.4,28.91,North,-999,-999.0,-999.0,61,0.00,,,0.33,WSDL version 420,2013-06-25 23:06:00,
2013-06-25 19:10:00,77.9,63.5,28.91,North,-999,-999.0,-999.0,62,0.00,,,0.33,WSDL version 420,2013-06-25 23:10:00,
2013-06-25 19:12:00,77.9,63.7,28.91,North,-999,-999.0,-999.0,62,0.00,,,0.33,WSDL version 420,2013-06-25 23:12:00,
2013-06-25 19:14:00,77.9,63.8,28.91,North,-999,-999.0,-999.0,62,0.00,,,0.33,WSDL version 420,2013-06-25 23:14:00,
2013-06-25 19:18:00,77.9,63.8,28.91,North,-999,-999.0,-999.0,62,0.00,,,0.33,WSDL version 420,2013-06-25 23:18:00,
2013-06-25 19:20:00,77.8,63.7,28.91,North,-999,-999.0,-999.0,62,0.00,,,0.33,WSDL version 420,2013-06-25 23:20:00,
2013-06-25 19:22:00,77.7,63.6,28.91,ESE,113,0.0,0.0,62,0.00,,,0.33,WSDL version 420,2013-06-25 23:22:00,
2013-06-25 19:24:00,77.7,63.4,28.91,SSE,158,0.0,0.0,61,0.00,,,0.33,WSDL version 420,2013-06-25 23:24:00,
2013-06-25 19:26:00,77.7,63.3,28.91,SSE,158,0.0,0.0,61,0.00,,,0.33,WSDL version 420,2013-06-25 23:26:00,
2013-06-25 19:28:00,77.7,63.2,28.91,SSE,158,0.0,0.0,61,0.00,,,0.33,WSDL version 420,2013-06-25 23:28:00,
2013-06-25 19:30:00,77.7,63.2,28.91,North,-999,-999.0,-999.0,61,0.00,,,0.33,WSDL version 420,2013-06-25 23:30:00,
2013-06-25 19:32:00,77.7,63.2,28.91,SSE,158,0.0,0.0,61,0.00,,,0.33,WSDL version 420,2013-06-25 23:32:00,
2013-06-25 19:36:00,77.5,63.0,28.91,SSE,158,0.0,0.0,61,0.00,,,0.33,WSDL version 420,2013-06-25 23:36:00,
2013-06-25 19:38:00,77.4,62.9,28.91,North,-999,-999.0,-999.0,61,0.00,,,0.33,WSDL version 420,2013-06-25 23:38:00,
2013-06-25 19:40:00,77.4,63.0,28.91,SSE,158,0.0,0.0,62,0.00,,,0.33,WSDL version 420,2013-06-25 23:40:00,
2013-06-25 19:42:00,77.3,63.1,28.91,North,-999,-999.0,-999.0,62,0.00,,,0.33,WSDL version 420,2013-06-25 23:42:00,
2013-06-25 19:44:00,77.2,63.2,28.91,North,-999,-999.0,-999.0,62,0.00,,,0.33,WSDL version 420,2013-06-25 23:44:00,
2013-06-25 19:48:00,77.2,63.2,28.91,North,-999,-999.0,-999.0,62,0.00,,,0.33,WSDL version 420,2013-06-25 23:48:00,
2013-06-25 19:50:00,77.1,63.1,28.91,WNW,293,0.0,0.0,62,0.00,,,0.33,WSDL version 420,2013-06-25 23:50:00,
2013-06-25 19:52:00,77.1,63.1,28.91,WNW,293,0.0,0.0,63,0.00,,,0.33,WSDL version 420,2013-06-25 23:52:00,
2013-06-25 19:54:00,76.9,63.2,28.91,North,-999,-999.0,-999.0,63,0.00,,,0.33,WSDL version 420,2013-06-25 23:54:00,
2013-06-25 19:56:00,76.9,63.3,28.91,NW,315,0.0,0.0,63,0.00,,,0.33,WSDL version 420,2013-06-25 23:56:00,
2013-06-25 20:02:00,76.8,63.8,28.91,South,180,0.0,0.0,65,0.00,,,0.33,WSDL version 420,2013-06-26 00:02:00,
2013-06-25 20:06:00,76.6,64.0,28.94,North,-999,-999.0,-999.0,65,0.00,,,0.33,WSDL version 420,2013-06-26 00:06:00,
2013-06-25 20:08:00,76.6,64.0,28.94,North,-999,-999.0,-999.0,65,0.00,,,0.33,WSDL version 420,2013-06-26 00:08:00,
2013-06-25 20:10:00,76.6,63.9,28.94,North,-999,-999.0,-999.0,65,0.00,,,0.33,WSDL version 420,2013-06-26 00:10:00,
2013-06-25 20:12:00,76.4,63.7,28.94,North,-999,-999.0,-999.0,64,0.00,,,0.33,WSDL version 420,2013-06-26 00:12:00,
2013-06-25 20:14:00,76.4,63.5,28.94,North,-999,-999.0,-999.0,64,0.00,,,0.33,WSDL version 420,2013-06-26 00:14:00,
2013-06-25 20:18:00,76.2,62.9,28.94,North,-999,-999.0,-999.0,63,0.00,,,0.33,WSDL version 420,2013-06-26 00:18:00,
2013-06-25 20:20:00,76.1,62.6,28.94,North,-999,-999.0,-999.0,63,0.00,,,0.33,WSDL version 420,2013-06-26 00:20:00,
2013-06-25 20:24:00,76.1,62.3,28.94,North,-999,-999.0,-999.0,62,0.00,,,0.33,WSDL version 420,2013-06-26 00:24:00,
2013-06-25 20:26:00,76.0,62.1,28.94,North,-999,-999.0,-999.0,62,0.00,,,0.33,WSDL version 420,2013-06-26 00:26:00,
2013-06-25 20:28:00,75.9,62.0,28.94,North,-999,-999.0,-999.0,62,0.00,,,0.33,WSDL version 420,2013-06-26 00:28:00,
2013-06-25 20:30:00,75.9,61.9,28.94,North,-999,-999.0,-999.0,62,0.00,,,0.33,WSDL version 420,2013-06-26 00:30:00,
2013-06-25 20:32:00,75.8,61.9,28.94,SE,135,0.0,0.0,62,0.00,,,0.33,WSDL version 420,2013-06-26 00:32:00,
2013-06-25 20:34:00,75.7,61.8,28.94,SE,135,0.0,0.0,62,0.00,,,0.33,WSDL version 420,2013-06-26 00:34:00,
2013-06-25 20:36:00,75.7,61.8,28.94,SSE,158,0.4,1.3,62,0.00,,,0.33,WSDL version 420,2013-06-26 00:36:00,
2013-06-25 20:38:00,75.7,61.8,28.94,North,0,0.0,1.3,63,0.00,,,0.33,WSDL version 420,2013-06-26 00:38:00,
2013-06-25 20:40:00,75.6,61.9,28.94,North,-999,-999.0,-999.0,63,0.00,,,0.33,WSDL version 420,2013-06-26 00:40:00,
2013-06-25 20:42:00,75.6,62.0,28.94,North,-999,-999.0,-999.0,63,0.00,,,0.33,WSDL version 420,2013-06-26 00:42:00,
2013-06-25 20:44:00,75.6,62.1,28.94,North,-999,-999.0,-999.0,63,0.00,,,0.33,WSDL version 420,2013-06-26 00:44:00,
2013-06-25 20:48:00,75.4,62.0,28.94,North,-999,-999.0,-999.0,63,0.00,,,0.33,WSDL version 420,2013-06-26 00:48:00,
2013-06-25 20:50:00,75.3,61.9,28.94,North,-999,-999.0,-999.0,63,0.00,,,0.33,WSDL version 420,2013-06-26 00:50:00,
2013-06-25 20:54:00,75.2,61.5,28.94,North,-999,-999.0,-999.0,62,0.00,,,0.33,WSDL version 420,2013-06-26 00:54:00,
2013-06-25 20:56:00,75.2,61.3,28.94,SE,135,0.0,0.0,62,0.00,,,0.33,WSDL version 420,2013-06-26 00:56:00,
2013-06-25 21:02:00,75.1,61.7,28.94,North,-999,-999.0,-999.0,64,0.00,,,0.33,WSDL version 420,2013-06-26 01:02:00,
2013-06-25 21:06:00,74.9,61.7,28.94,North,-999,-999.0,-999.0,63,0.00,,,0.33,WSDL version 420,2013-06-26 01:06:00,
2013-06-25 21:08:00,74.8,61.5,28.94,SW,225,0.0,0.0,63,0.00,,,0.33,WSDL version 420,2013-06-26 01:08:00,
2013-06-25 21:12:00,74.7,61.4,28.94,North,-999,-999.0,-999.0,64,0.00,,,0.33,WSDL version 420,2013-06-26 01:12:00,
2013-06-25 21:14:00,74.7,61.5,28.94,North,-999,-999.0,-999.0,63,0.00,,,0.33,WSDL version 420,2013-06-26 01:14:00,
2013-06-25 21:16:00,74.7,61.5,28.94,North,-999,-999.0,-999.0,64,0.00,,,0.33,WSDL version 420,2013-06-26 01:16:00,
2013-06-25 21:20:00,74.6,61.7,28.94,North,-999,-999.0,-999.0,65,0.00,,,0.33,WSDL version 420,2013-06-26 01:20:00,
2013-06-25 21:22:00,74.6,61.8,28.94,North,-999,-999.0,-999.0,65,0.00,,,0.33,WSDL version 420,2013-06-26 01:22:00,
2013-06-25 21:24:00,74.5,62.0,28.94,North,-999,-999.0,-999.0,65,0.00,,,0.33,WSDL version 420,2013-06-26 01:24:00,
2013-06-25 21:26:00,74.5,62.1,28.94,South,180,0.0,0.0,66,0.00,,,0.33,WSDL version 420,2013-06-26 01:26:00,
2013-06-25 21:28:00,74.4,62.2,28.94,North,0,0.0,0.0,66,0.00,,,0.33,WSDL version 420,2013-06-26 01:28:00,
2013-06-25 21:30:00,74.3,62.2,28.94,North,-999,-999.0,-999.0,66,0.00,,,0.33,WSDL version 420,2013-06-26 01:30:00,
2013-06-25 21:32:00,74.2,62.1,28.94,North,-999,-999.0,-999.0,66,0.00,,,0.33,WSDL version 420,2013-06-26 01:32:00,
2013-06-25 21:36:00,74.0,62.0,28.94,North,-999,-999.0,-999.0,66,0.00,,,0.33,WSDL version 420,2013-06-26 01:36:00,
2013-06-25 21:38:00,74.0,61.9,28.94,North,-999,-999.0,-999.0,66,0.00,,,0.33,WSDL version 420,2013-06-26 01:38:00,
2013-06-25 21:42:00,73.8,62.0,28.94,North,-999,-999.0,-999.0,67,0.00,,,0.33,WSDL version 420,2013-06-26 01:42:00,
2013-06-25 21:44:00,73.8,62.1,28.94,South,180,0.0,0.0,67,0.00,,,0.33,WSDL version 420,2013-06-26 01:44:00,
2013-06-25 21:46:00,73.8,62.1,28.94,North,0,0.0,0.0,67,0.00,,,0.33,WSDL version 420,2013-06-26 01:46:00,
2013-06-25 21:48:00,73.8,62.1,28.94,North,-999,-999.0,-999.0,67,0.00,,,0.33,WSDL version 420,2013-06-26 01:48:00,
2013-06-25 21:52:00,73.8,62.5,28.94,South,180,0.0,0.0,68,0.00,,,0.33,WSDL version 420,2013-06-26 01:52:00,
2013-06-25 21:58:00,73.6,62.4,28.94,South,180,0.0,0.0,68,0.00,,,0.33,WSDL version 420,2013-06-26 01:58:00,
2013-06-25 22:00:00,73.6,62.4,28.94,South,180,0.0,0.0,68,0.00,,,0.33,WSDL version 420,2013-06-26 02:00:00,
2013-06-25 22:04:00,73.5,62.3,28.94,South,180,0.0,0.0,68,0.00,,,0.33,WSDL version 420,2013-06-26 02:04:00,
2013-06-25 22:06:00,73.4,62.2,28.94,North,-999,-999.0,-999.0,68,0.00,,,0.33,WSDL version 420,2013-06-26 02:06:00,
2013-06-25 22:08:00,73.4,62.2,28.94,South,180,0.0,0.0,68,0.00,,,0.33,WSDL version 420,2013-06-26 02:08:00,
2013-06-25 22:10:00,73.4,62.2,28.94,South,180,0.0,0.0,68,0.00,,,0.33,WSDL version 420,2013-06-26 02:10:00,
2013-06-25 22:12:00,73.4,62.2,28.94,South,180,0.0,0.0,68,0.00,,,0.33,WSDL version 420,2013-06-26 02:12:00,
2013-06-25 22:14:00,73.4,62.2,28.94,South,180,0.0,0.0,68,0.00,,,0.33,WSDL version 420,2013-06-26 02:14:00,
2013-06-25 22:20:00,73.2,62.2,28.94,South,180,0.0,0.0,69,0.00,,,0.33,WSDL version 420,2013-06-26 02:20:00,
2013-06-25 22:22:00,73.1,62.3,28.94,South,180,0.0,0.0,69,0.00,,,0.33,WSDL version 420,2013-06-26 02:22:00,
2013-06-25 22:28:00,72.9,62.1,28.94,North,-999,-999.0,-999.0,69,0.00,,,0.33,WSDL version 420,2013-06-26 02:28:00,
2013-06-25 22:32:00,72.9,62.2,28.94,North,-999,-999.0,-999.0,70,0.00,,,0.33,WSDL version 420,2013-06-26 02:32:00,
2013-06-25 22:34:00,72.9,62.3,28.94,North,-999,-999.0,-999.0,69,0.00,,,0.33,WSDL version 420,2013-06-26 02:34:00,
2013-06-25 22:36:00,72.9,62.3,28.94,North,-999,-999.0,-999.0,70,0.00,,,0.33,WSDL version 420,2013-06-26 02:36:00,
2013-06-25 22:38:00,72.8,62.2,28.94,North,-999,-999.0,-999.0,70,0.00,,,0.33,WSDL version 420,2013-06-26 02:38:00,
2013-06-25 22:42:00,72.7,62.3,28.94,North,-999,-999.0,-999.0,70,0.00,,,0.33,WSDL version 420,2013-06-26 02:42:00,
2013-06-25 22:46:00,72.7,62.3,28.94,North,-999,-999.0,-999.0,70,0.00,,,0.33,WSDL version 420,2013-06-26 02:46:00,
2013-06-25 22:48:00,72.7,62.3,28.94,East,90,0.0,0.0,70,0.00,,,0.33,WSDL version 420,2013-06-26 02:48:00,
2013-06-25 22:50:00,72.7,62.5,28.94,North,-999,-999.0,-999.0,71,0.00,,,0.33,WSDL version 420,2013-06-26 02:50:00,
2013-06-25 22:54:00,72.6,62.4,28.94,North,0,0.0,0.0,70,0.00,,,0.33,WSDL version 420,2013-06-26 02:54:00,
2013-06-25 22:56:00,72.5,62.1,28.94,North,-999,-999.0,-999.0,70,0.00,,,0.33,WSDL version 420,2013-06-26 02:56:00,
2013-06-25 22:58:00,72.4,62.1,28.94,East,90,0.0,0.0,70,0.00,,,0.33,WSDL version 420,2013-06-26 02:58:00,
2013-06-25 23:02:00,72.2,61.9,28.94,North,-999,-999.0,-999.0,70,0.00,,,0.33,WSDL version 420,2013-06-26 03:02:00,
2013-06-25 23:06:00,72.1,62.0,28.94,North,-999,-999.0,-999.0,71,0.00,,,0.33,WSDL version 420,2013-06-26 03:06:00,
2013-06-25 23:08:00,72.1,62.2,28.94,North,-999,-999.0,-999.0,71,0.00,,,0.33,WSDL version 420,2013-06-26 03:08:00,
2013-06-25 23:10:00,72.2,62.3,28.94,North,-999,-999.0,-999.0,71,0.00,,,0.33,WSDL version 420,2013-06-26 03:10:00,
2013-06-25 23:12:00,72.2,62.3,28.94,North,-999,-999.0,-999.0,71,0.00,,,0.33,WSDL version 420,2013-06-26 03:12:00,
2013-06-25 23:14:00,72.3,62.4,28.94,South,169,0.0,0.0,71,0.00,,,0.33,WSDL version 420,2013-06-26 03:14:00,
2013-06-25 23:16:00,72.3,62.5,28.94,North,-999,-999.0,-999.0,72,0.00,,,0.33,WSDL version 420,2013-06-26 03:16:00,
2013-06-25 23:18:00,72.3,62.7,28.94,North,-999,-999.0,-999.0,72,0.00,,,0.33,WSDL version 420,2013-06-26 03:18:00,
2013-06-25 23:20:00,72.3,62.8,28.94,North,-999,-999.0,-999.0,72,0.00,,,0.33,WSDL version 420,2013-06-26 03:20:00,
2013-06-25 23:26:00,72.2,62.5,28.94,North,-999,-999.0,-999.0,71,0.00,,,0.33,WSDL version 420,2013-06-26 03:26:00,
2013-06-25 23:28:00,72.2,62.3,28.94,North,-999,-999.0,-999.0,71,0.00,,,0.33,WSDL version 420,2013-06-26 03:28:00,
2013-06-25 23:32:00,72.0,62.4,28.94,NW,315,0.0,0.0,72,0.00,,,0.33,WSDL version 420,2013-06-26 03:32:00,
2013-06-25 23:34:00,72.0,62.4,28.94,North,0,0.0,0.0,72,0.00,,,0.33,WSDL version 420,2013-06-26 03:34:00,
2013-06-25 23:40:00,72.0,62.6,28.94,SW,225,0.0,0.0,73,0.00,,,0.33,WSDL version 420,2013-06-26 03:40:00,
2013-06-25 23:42:00,72.1,62.8,28.94,North,-999,-999.0,-999.0,73,0.00,,,0.33,WSDL version 420,2013-06-26 03:42:00,
2013-06-25 23:44:00,72.0,62.8,28.94,North,-999,-999.0,-999.0,72,0.00,,,0.33,WSDL version 420,2013-06-26 03:44:00,
2013-06-25 23:46:00,72.0,62.5,28.94,SW,225,0.0,0.0,72,0.00,,,0.33,WSDL version 420,2013-06-26 03:46:00,
2013-06-25 23:48:00,71.9,62.4,28.94,North,0,0.0,0.0,72,0.00,,,0.33,WSDL version 420,2013-06-26 03:48:00,
2013-06-25 23:52:00,71.8,62.3,28.94,North,-999,-999.0,-999.0,72,0.00,,,0.33,WSDL version 420,2013-06-26 03:52:00,
2013-06-25 23:56:00,71.7,62.4,28.94,North,-999,-999.0,-999.0,73,0.00,,,0.33,WSDL version 420,2013-06-26 03:56:00,
2013-06-25 23:58:00,71.6,62.5,28.94,North,-999,-999.0,-999.0,73,0.00,,,0.33,WSDL version 420,2013-06-26 03:58:00,